Goodview, Virginia
Current Conditions -  °F | °C
As of 6:54 AM on Monday 22 Dec 2014 (Local Time) from KROA Reporting Station
Overcast Overcast  
Wind Chill: 31°   Ceiling: 2500
Heat Index: 36°   Visibility: 10mi
Dew Point: 29°   Wind: 6mph
Humidity: 76%   Direction: 130°SE
Pressure: 30.19"   Gusts: NA
Location:  37.22°N, 79.76°W
Report Text: KROA 221154Z 13005KT 10SM OVC025 02/M02 A3019 RMK AO2 SLP230 T00221017 10033 20022 56009
Loading
Personal Weather Stations






























Interactive Weather Map New forecast layout! Learn more

10-Day Weather Forecast

Advertisements
Track Severe Weather on mobile